sensor_id;sensor_type;location;lat;lon;timestamp;P1;durP1;ratioP1;P2;durP2;ratioP2
80411;SDS011;69749;42.684;23.360;2024-01-07T00:00:28;20.67;;;13.40;;
80411;SDS011;69749;42.684;23.360;2024-01-07T00:02:55;20.98;;;10.70;;
80411;SDS011;69749;42.684;23.360;2024-01-07T00:05:20;17.73;;;10.57;;
80411;SDS011;69749;42.684;23.360;2024-01-07T00:07:46;17.75;;;10.15;;
80411;SDS011;69749;42.684;23.360;2024-01-07T00:10:13;20.50;;;11.18;;
80411;SDS011;69749;42.684;23.360;2024-01-07T00:12:38;18.02;;;8.88;;
80411;SDS011;69749;42.684;23.360;2024-01-07T00:15:04;15.23;;;9.32;;
80411;SDS011;69749;42.684;23.360;2024-01-07T00:17:30;18.67;;;11.50;;
80411;SDS011;69749;42.684;23.360;2024-01-07T00:19:55;19.60;;;11.98;;
80411;SDS011;69749;42.684;23.360;2024-01-07T00:22:21;23.02;;;13.10;;
80411;SDS011;69749;42.684;23.360;2024-01-07T00:24:50;26.23;;;14.90;;
80411;SDS011;69749;42.684;23.360;2024-01-07T00:27:15;31.17;;;15.60;;
80411;SDS011;69749;42.684;23.360;2024-01-07T00:29:41;27.80;;;15.18;;
80411;SDS011;69749;42.684;23.360;2024-01-07T00:32:06;32.13;;;16.02;;
80411;SDS011;69749;42.684;23.360;2024-01-07T00:34:34;34.28;;;17.23;;
80411;SDS011;69749;42.684;23.360;2024-01-07T00:37:00;29.35;;;16.98;;
80411;SDS011;69749;42.684;23.360;2024-01-07T00:39:25;33.70;;;18.00;;
80411;SDS011;69749;42.684;23.360;2024-01-07T00:41:51;29.70;;;17.67;;
80411;SDS011;69749;42.684;23.360;2024-01-07T00:44:16;30.50;;;17.27;;
80411;SDS011;69749;42.684;23.360;2024-01-07T00:46:42;32.80;;;17.13;;
80411;SDS011;69749;42.684;23.360;2024-01-07T00:49:07;23.73;;;16.50;;
80411;SDS011;69749;42.684;23.360;2024-01-07T00:51:33;32.20;;;17.90;;
80411;SDS011;69749;42.684;23.360;2024-01-07T00:53:58;35.30;;;20.25;;
80411;SDS011;69749;42.684;23.360;2024-01-07T00:56:27;32.55;;;18.92;;
80411;SDS011;69749;42.684;23.360;2024-01-07T00:58:53;26.27;;;16.20;;
80411;SDS011;69749;42.684;23.360;2024-01-07T01:01:18;33.45;;;18.35;;
80411;SDS011;69749;42.684;23.360;2024-01-07T01:03:44;29.42;;;16.90;;
80411;SDS011;69749;42.684;23.360;2024-01-07T01:06:09;31.92;;;18.52;;
80411;SDS011;69749;42.684;23.360;2024-01-07T01:08:35;30.10;;;16.17;;
80411;SDS011;69749;42.684;23.360;2024-01-07T01:11:00;28.88;;;16.88;;
80411;SDS011;69749;42.684;23.360;2024-01-07T01:13:26;28.15;;;16.42;;
80411;SDS011;69749;42.684;23.360;2024-01-07T01:15:51;34.65;;;18.67;;
80411;SDS011;69749;42.684;23.360;2024-01-07T01:18:17;33.55;;;16.85;;
80411;SDS011;69749;42.684;23.360;2024-01-07T01:20:43;24.63;;;16.52;;
80411;SDS011;69749;42.684;23.360;2024-01-07T01:23:08;32.60;;;17.98;;
80411;SDS011;69749;42.684;23.360;2024-01-07T01:25:34;29.30;;;17.90;;
80411;SDS011;69749;42.684;23.360;2024-01-07T01:28:01;30.40;;;17.42;;
80411;SDS011;69749;42.684;23.360;2024-01-07T01:30:26;29.60;;;15.52;;
80411;SDS011;69749;42.684;23.360;2024-01-07T01:32:55;27.02;;;16.50;;
80411;SDS011;69749;42.684;23.360;2024-01-07T01:35:21;27.00;;;15.90;;
80411;SDS011;69749;42.684;23.360;2024-01-07T01:37:46;29.70;;;16.80;;
80411;SDS011;69749;42.684;23.360;2024-01-07T01:40:12;31.00;;;17.75;;
80411;SDS011;69749;42.684;23.360;2024-01-07T01:42:38;30.85;;;17.05;;
80411;SDS011;69749;42.684;23.360;2024-01-07T01:45:03;30.20;;;16.40;;
80411;SDS011;69749;42.684;23.360;2024-01-07T01:47:29;24.33;;;15.77;;
80411;SDS011;69749;42.684;23.360;2024-01-07T01:49:56;27.95;;;15.15;;
80411;SDS011;69749;42.684;23.360;2024-01-07T01:52:22;29.77;;;17.27;;
80411;SDS011;69749;42.684;23.360;2024-01-07T01:54:48;30.17;;;17.52;;
80411;SDS011;69749;42.684;23.360;2024-01-07T01:57:15;30.95;;;17.95;;
80411;SDS011;69749;42.684;23.360;2024-01-07T01:59:45;27.13;;;16.55;;
80411;SDS011;69749;42.684;23.360;2024-01-07T02:02:11;31.90;;;18.08;;
80411;SDS011;69749;42.684;23.360;2024-01-07T02:04:36;29.33;;;18.25;;
80411;SDS011;69749;42.684;23.360;2024-01-07T02:07:02;29.75;;;17.02;;
80411;SDS011;69749;42.684;23.360;2024-01-07T02:09:28;27.83;;;17.40;;
80411;SDS011;69749;42.684;23.360;2024-01-07T02:12:02;28.88;;;16.80;;
80411;SDS011;69749;42.684;23.360;2024-01-07T02:14:29;24.92;;;15.88;;
80411;SDS011;69749;42.684;23.360;2024-01-07T02:16:55;26.63;;;15.88;;
80411;SDS011;69749;42.684;23.360;2024-01-07T02:19:20;27.13;;;16.02;;
80411;SDS011;69749;42.684;23.360;2024-01-07T02:21:47;26.08;;;14.15;;
80411;SDS011;69749;42.684;23.360;2024-01-07T02:24:18;22.42;;;13.63;;
80411;SDS011;69749;42.684;23.360;2024-01-07T02:26:44;17.67;;;10.32;;
80411;SDS011;69749;42.684;23.360;2024-01-07T02:29:09;17.80;;;11.13;;
80411;SDS011;69749;42.684;23.360;2024-01-07T02:31:35;16.73;;;9.95;;
80411;SDS011;69749;42.684;23.360;2024-01-07T02:34:00;14.63;;;9.20;;
80411;SDS011;69749;42.684;23.360;2024-01-07T02:36:26;14.38;;;8.43;;
80411;SDS011;69749;42.684;23.360;2024-01-07T02:38:51;16.10;;;8.68;;
80411;SDS011;69749;42.684;23.360;2024-01-07T02:41:17;12.52;;;8.23;;
80411;SDS011;69749;42.684;23.360;2024-01-07T02:43:42;15.55;;;8.63;;
80411;SDS011;69749;42.684;23.360;2024-01-07T02:46:08;16.02;;;9.40;;
80411;SDS011;69749;42.684;23.360;2024-01-07T02:48:34;17.83;;;11.38;;
80411;SDS011;69749;42.684;23.360;2024-01-07T02:51:00;17.50;;;11.55;;
80411;SDS011;69749;42.684;23.360;2024-01-07T02:53:28;27.38;;;13.55;;
80411;SDS011;69749;42.684;23.360;2024-01-07T02:55:54;24.85;;;13.10;;
80411;SDS011;69749;42.684;23.360;2024-01-07T02:58:19;23.70;;;13.98;;
80411;SDS011;69749;42.684;23.360;2024-01-07T03:00:44;23.48;;;13.77;;
80411;SDS011;69749;42.684;23.360;2024-01-07T03:03:10;21.90;;;13.07;;
80411;SDS011;69749;42.684;23.360;2024-01-07T03:05:35;22.73;;;12.90;;
80411;SDS011;69749;42.684;23.360;2024-01-07T03:08:01;22.88;;;12.02;;
80411;SDS011;69749;42.684;23.360;2024-01-07T03:10:26;15.48;;;10.00;;
80411;SDS011;69749;42.684;23.360;2024-01-07T03:12:52;16.02;;;9.68;;
80411;SDS011;69749;42.684;23.360;2024-01-07T03:15:17;16.65;;;9.48;;
80411;SDS011;69749;42.684;23.360;2024-01-07T03:17:43;17.85;;;10.23;;
80411;SDS011;69749;42.684;23.360;2024-01-07T03:20:09;16.35;;;10.70;;
80411;SDS011;69749;42.684;23.360;2024-01-07T03:22:35;18.15;;;10.00;;
80411;SDS011;69749;42.684;23.360;2024-01-07T03:25:00;20.67;;;10.85;;
80411;SDS011;69749;42.684;23.360;2024-01-07T03:27:26;18.45;;;11.45;;
80411;SDS011;69749;42.684;23.360;2024-01-07T03:29:52;23.40;;;14.20;;
80411;SDS011;69749;42.684;23.360;2024-01-07T03:32:17;23.88;;;14.23;;
80411;SDS011;69749;42.684;23.360;2024-01-07T03:34:43;27.15;;;15.50;;
80411;SDS011;69749;42.684;23.360;2024-01-07T03:37:08;24.40;;;14.00;;
80411;SDS011;69749;42.684;23.360;2024-01-07T03:39:34;22.80;;;13.27;;
80411;SDS011;69749;42.684;23.360;2024-01-07T03:42:00;18.35;;;11.70;;
80411;SDS011;69749;42.684;23.360;2024-01-07T03:44:25;20.50;;;11.98;;
80411;SDS011;69749;42.684;23.360;2024-01-07T03:46:51;21.15;;;12.18;;
80411;SDS011;69749;42.684;23.360;2024-01-07T03:49:16;23.38;;;13.48;;
80411;SDS011;69749;42.684;23.360;2024-01-07T03:51:45;22.23;;;12.55;;
80411;SDS011;69749;42.684;23.360;2024-01-07T03:54:10;18.00;;;11.80;;
80411;SDS011;69749;42.684;23.360;2024-01-07T03:56:36;15.32;;;10.25;;
80411;SDS011;69749;42.684;23.360;2024-01-07T03:59:01;18.80;;;10.18;;
80411;SDS011;69749;42.684;23.360;2024-01-07T04:01:27;15.45;;;9.57;;
80411;SDS011;69749;42.684;23.360;2024-01-07T04:03:52;13.18;;;8.10;;
80411;SDS011;69749;42.684;23.360;2024-01-07T04:06:18;10.35;;;7.18;;
80411;SDS011;69749;42.684;23.360;2024-01-07T04:08:43;12.63;;;7.50;;
80411;SDS011;69749;42.684;23.360;2024-01-07T04:11:09;11.55;;;7.38;;
80411;SDS011;69749;42.684;23.360;2024-01-07T04:13:34;14.27;;;8.50;;
80411;SDS011;69749;42.684;23.360;2024-01-07T04:16:00;11.00;;;7.43;;
80411;SDS011;69749;42.684;23.360;2024-01-07T04:18:25;9.73;;;6.93;;
80411;SDS011;69749;42.684;23.360;2024-01-07T04:20:51;9.35;;;6.70;;
80411;SDS011;69749;42.684;23.360;2024-01-07T04:23:16;12.50;;;7.47;;
80411;SDS011;69749;42.684;23.360;2024-01-07T04:25:42;12.35;;;7.43;;
80411;SDS011;69749;42.684;23.360;2024-01-07T04:28:09;10.70;;;6.43;;
80411;SDS011;69749;42.684;23.360;2024-01-07T04:30:35;8.32;;;6.20;;
80411;SDS011;69749;42.684;23.360;2024-01-07T04:33:00;9.02;;;5.63;;
80411;SDS011;69749;42.684;23.360;2024-01-07T04:35:26;10.50;;;6.30;;
80411;SDS011;69749;42.684;23.360;2024-01-07T04:37:51;8.27;;;5.68;;
80411;SDS011;69749;42.684;23.360;2024-01-07T04:40:17;8.60;;;5.68;;
80411;SDS011;69749;42.684;23.360;2024-01-07T04:42:42;8.43;;;5.45;;
80411;SDS011;69749;42.684;23.360;2024-01-07T04:45:08;8.15;;;4.85;;
80411;SDS011;69749;42.684;23.360;2024-01-07T04:47:33;7.93;;;5.28;;
80411;SDS011;69749;42.684;23.360;2024-01-07T04:49:59;5.45;;;4.60;;
80411;SDS011;69749;42.684;23.360;2024-01-07T04:52:25;9.57;;;5.45;;
80411;SDS011;69749;42.684;23.360;2024-01-07T04:54:54;10.55;;;6.85;;
80411;SDS011;69749;42.684;23.360;2024-01-07T04:57:20;11.15;;;7.45;;
80411;SDS011;69749;42.684;23.360;2024-01-07T04:59:47;12.38;;;7.65;;
80411;SDS011;69749;42.684;23.360;2024-01-07T05:02:13;15.88;;;9.43;;
80411;SDS011;69749;42.684;23.360;2024-01-07T05:04:39;16.85;;;8.70;;
80411;SDS011;69749;42.684;23.360;2024-01-07T05:07:05;11.48;;;8.52;;
80411;SDS011;69749;42.684;23.360;2024-01-07T05:09:31;15.10;;;9.30;;
80411;SDS011;69749;42.684;23.360;2024-01-07T05:11:57;13.93;;;9.38;;
80411;SDS011;69749;42.684;23.360;2024-01-07T05:14:22;15.73;;;9.80;;
80411;SDS011;69749;42.684;23.360;2024-01-07T05:16:48;17.33;;;9.55;;
80411;SDS011;69749;42.684;23.360;2024-01-07T05:19:14;17.15;;;10.77;;
80411;SDS011;69749;42.684;23.360;2024-01-07T05:21:39;19.35;;;11.27;;
80411;SDS011;69749;42.684;23.360;2024-01-07T05:24:05;21.40;;;11.75;;
80411;SDS011;69749;42.684;23.360;2024-01-07T05:26:30;17.05;;;11.35;;
80411;SDS011;69749;42.684;23.360;2024-01-07T05:28:56;19.55;;;11.68;;
80411;SDS011;69749;42.684;23.360;2024-01-07T05:31:21;14.82;;;10.10;;
80411;SDS011;69749;42.684;23.360;2024-01-07T05:33:47;16.42;;;10.48;;
80411;SDS011;69749;42.684;23.360;2024-01-07T05:36:13;16.98;;;11.30;;
80411;SDS011;69749;42.684;23.360;2024-01-07T05:38:38;16.55;;;10.68;;
80411;SDS011;69749;42.684;23.360;2024-01-07T05:41:06;15.70;;;10.10;;
80411;SDS011;69749;42.684;23.360;2024-01-07T05:43:32;12.80;;;8.68;;
80411;SDS011;69749;42.684;23.360;2024-01-07T05:45:57;16.38;;;9.23;;
80411;SDS011;69749;42.684;23.360;2024-01-07T05:48:23;18.17;;;10.18;;
80411;SDS011;69749;42.684;23.360;2024-01-07T05:50:49;15.70;;;8.98;;
80411;SDS011;69749;42.684;23.360;2024-01-07T05:53:15;14.57;;;9.05;;
80411;SDS011;69749;42.684;23.360;2024-01-07T05:55:42;14.95;;;9.55;;
80411;SDS011;69749;42.684;23.360;2024-01-07T05:58:07;14.40;;;9.02;;
80411;SDS011;69749;42.684;23.360;2024-01-07T06:00:33;12.90;;;8.48;;
80411;SDS011;69749;42.684;23.360;2024-01-07T06:02:59;16.02;;;9.90;;
80411;SDS011;69749;42.684;23.360;2024-01-07T06:05:25;18.00;;;9.95;;
80411;SDS011;69749;42.684;23.360;2024-01-07T06:07:51;14.10;;;8.75;;
80411;SDS011;69749;42.684;23.360;2024-01-07T06:10:16;10.63;;;7.57;;
80411;SDS011;69749;42.684;23.360;2024-01-07T06:12:42;13.70;;;8.20;;
80411;SDS011;69749;42.684;23.360;2024-01-07T06:15:07;13.60;;;8.32;;
80411;SDS011;69749;42.684;23.360;2024-01-07T06:17:33;17.45;;;8.55;;
80411;SDS011;69749;42.684;23.360;2024-01-07T06:19:59;14.45;;;8.07;;
80411;SDS011;69749;42.684;23.360;2024-01-07T06:22:24;13.90;;;8.73;;
80411;SDS011;69749;42.684;23.360;2024-01-07T06:24:50;12.30;;;8.57;;
80411;SDS011;69749;42.684;23.360;2024-01-07T06:27:15;15.98;;;9.48;;
80411;SDS011;69749;42.684;23.360;2024-01-07T06:29:41;14.60;;;9.30;;
80411;SDS011;69749;42.684;23.360;2024-01-07T06:32:09;12.57;;;8.75;;
80411;SDS011;69749;42.684;23.360;2024-01-07T06:34:38;14.18;;;8.38;;
80411;SDS011;69749;42.684;23.360;2024-01-07T06:37:04;12.18;;;8.57;;
80411;SDS011;69749;42.684;23.360;2024-01-07T06:39:30;18.40;;;9.80;;
80411;SDS011;69749;42.684;23.360;2024-01-07T06:41:57;10.63;;;8.00;;
80411;SDS011;69749;42.684;23.360;2024-01-07T06:44:22;14.10;;;8.88;;
80411;SDS011;69749;42.684;23.360;2024-01-07T06:46:48;13.63;;;8.40;;
80411;SDS011;69749;42.684;23.360;2024-01-07T06:49:13;13.25;;;8.80;;
80411;SDS011;69749;42.684;23.360;2024-01-07T06:51:39;13.73;;;9.15;;
80411;SDS011;69749;42.684;23.360;2024-01-07T06:54:05;14.73;;;9.30;;
80411;SDS011;69749;42.684;23.360;2024-01-07T06:56:30;17.27;;;8.60;;
80411;SDS011;69749;42.684;23.360;2024-01-07T06:58:56;14.25;;;8.57;;
80411;SDS011;69749;42.684;23.360;2024-01-07T07:01:21;14.00;;;9.23;;
80411;SDS011;69749;42.684;23.360;2024-01-07T07:03:48;14.25;;;10.07;;
80411;SDS011;69749;42.684;23.360;2024-01-07T07:06:14;17.27;;;9.43;;
80411;SDS011;69749;42.684;23.360;2024-01-07T07:08:40;13.75;;;9.27;;
80411;SDS011;69749;42.684;23.360;2024-01-07T07:11:06;14.75;;;8.80;;
80411;SDS011;69749;42.684;23.360;2024-01-07T07:13:31;13.90;;;8.48;;
80411;SDS011;69749;42.684;23.360;2024-01-07T07:15:57;11.80;;;8.20;;
80411;SDS011;69749;42.684;23.360;2024-01-07T07:18:22;14.43;;;9.02;;
80411;SDS011;69749;42.684;23.360;2024-01-07T07:20:48;16.20;;;8.43;;
80411;SDS011;69749;42.684;23.360;2024-01-07T07:23:13;13.60;;;7.75;;
80411;SDS011;69749;42.684;23.360;2024-01-07T07:25:39;10.70;;;7.65;;
80411;SDS011;69749;42.684;23.360;2024-01-07T07:28:04;16.17;;;7.90;;
80411;SDS011;69749;42.684;23.360;2024-01-07T07:30:30;11.82;;;7.85;;
80411;SDS011;69749;42.684;23.360;2024-01-07T07:32:55;10.80;;;6.55;;
80411;SDS011;69749;42.684;23.360;2024-01-07T07:35:21;11.88;;;7.07;;
80411;SDS011;69749;42.684;23.360;2024-01-07T07:37:46;11.93;;;6.65;;
80411;SDS011;69749;42.684;23.360;2024-01-07T07:40:12;9.68;;;7.13;;
80411;SDS011;69749;42.684;23.360;2024-01-07T07:42:38;14.43;;;8.00;;
80411;SDS011;69749;42.684;23.360;2024-01-07T07:45:04;13.77;;;7.38;;
80411;SDS011;69749;42.684;23.360;2024-01-07T07:47:30;12.95;;;7.88;;
80411;SDS011;69749;42.684;23.360;2024-01-07T07:49:56;9.57;;;7.30;;
80411;SDS011;69749;42.684;23.360;2024-01-07T07:52:22;10.63;;;6.97;;
80411;SDS011;69749;42.684;23.360;2024-01-07T07:54:50;9.95;;;7.13;;
80411;SDS011;69749;42.684;23.360;2024-01-07T07:57:16;12.32;;;7.65;;
80411;SDS011;69749;42.684;23.360;2024-01-07T07:59:42;10.32;;;7.10;;
80411;SDS011;69749;42.684;23.360;2024-01-07T08:02:07;10.20;;;7.13;;
80411;SDS011;69749;42.684;23.360;2024-01-07T08:04:33;11.27;;;7.45;;
80411;SDS011;69749;42.684;23.360;2024-01-07T08:06:59;15.15;;;8.43;;
80411;SDS011;69749;42.684;23.360;2024-01-07T08:09:25;14.57;;;9.05;;
80411;SDS011;69749;42.684;23.360;2024-01-07T08:11:51;17.83;;;11.65;;
80411;SDS011;69749;42.684;23.360;2024-01-07T08:14:17;15.63;;;9.93;;
80411;SDS011;69749;42.684;23.360;2024-01-07T08:16:42;14.20;;;9.75;;
80411;SDS011;69749;42.684;23.360;2024-01-07T08:19:08;18.90;;;13.80;;
80411;SDS011;69749;42.684;23.360;2024-01-07T08:21:33;29.38;;;18.02;;
80411;SDS011;69749;42.684;23.360;2024-01-07T08:23:59;22.30;;;14.27;;
80411;SDS011;69749;42.684;23.360;2024-01-07T08:26:24;26.85;;;17.15;;
80411;SDS011;69749;42.684;23.360;2024-01-07T08:28:50;23.70;;;15.63;;
80411;SDS011;69749;42.684;23.360;2024-01-07T08:31:15;20.90;;;13.43;;
80411;SDS011;69749;42.684;23.360;2024-01-07T08:33:41;25.58;;;15.25;;
80411;SDS011;69749;42.684;23.360;2024-01-07T08:36:06;24.83;;;17.02;;
80411;SDS011;69749;42.684;23.360;2024-01-07T08:38:32;24.55;;;16.83;;
80411;SDS011;69749;42.684;23.360;2024-01-07T08:40:58;27.50;;;16.17;;
80411;SDS011;69749;42.684;23.360;2024-01-07T08:43:23;25.63;;;16.73;;
80411;SDS011;69749;42.684;23.360;2024-01-07T08:45:49;22.98;;;16.15;;
80411;SDS011;69749;42.684;23.360;2024-01-07T08:48:15;25.52;;;16.13;;
80411;SDS011;69749;42.684;23.360;2024-01-07T08:50:40;23.45;;;15.68;;
80411;SDS011;69749;42.684;23.360;2024-01-07T08:53:06;24.17;;;15.40;;
80411;SDS011;69749;42.684;23.360;2024-01-07T08:55:31;23.52;;;15.25;;
80411;SDS011;69749;42.684;23.360;2024-01-07T08:57:57;17.70;;;12.00;;
80411;SDS011;69749;42.684;23.360;2024-01-07T09:00:22;18.23;;;13.07;;
80411;SDS011;69749;42.684;23.360;2024-01-07T09:02:52;14.80;;;11.35;;
80411;SDS011;69749;42.684;23.360;2024-01-07T09:05:18;16.05;;;10.77;;
80411;SDS011;69749;42.684;23.360;2024-01-07T09:07:43;14.85;;;10.85;;
80411;SDS011;69749;42.684;23.360;2024-01-07T09:10:09;14.30;;;10.25;;
80411;SDS011;69749;42.684;23.360;2024-01-07T09:12:36;15.27;;;9.75;;
80411;SDS011;69749;42.684;23.360;2024-01-07T09:15:02;10.48;;;9.07;;
80411;SDS011;69749;42.684;23.360;2024-01-07T09:17:29;13.68;;;10.65;;
80411;SDS011;69749;42.684;23.360;2024-01-07T09:19:55;14.30;;;10.30;;
80411;SDS011;69749;42.684;23.360;2024-01-07T09:22:20;12.30;;;11.00;;
80411;SDS011;69749;42.684;23.360;2024-01-07T09:24:46;13.80;;;10.70;;
80411;SDS011;69749;42.684;23.360;2024-01-07T09:27:12;15.73;;;11.50;;
80411;SDS011;69749;42.684;23.360;2024-01-07T09:29:37;13.05;;;10.95;;
80411;SDS011;69749;42.684;23.360;2024-01-07T09:32:03;15.73;;;10.23;;
80411;SDS011;69749;42.684;23.360;2024-01-07T09:34:29;11.13;;;8.40;;
80411;SDS011;69749;42.684;23.360;2024-01-07T09:36:55;12.32;;;8.90;;
80411;SDS011;69749;42.684;23.360;2024-01-07T09:39:21;12.43;;;9.00;;
80411;SDS011;69749;42.684;23.360;2024-01-07T09:41:46;11.05;;;9.68;;
80411;SDS011;69749;42.684;23.360;2024-01-07T09:44:12;13.45;;;9.75;;
80411;SDS011;69749;42.684;23.360;2024-01-07T09:46:41;13.80;;;10.45;;
80411;SDS011;69749;42.684;23.360;2024-01-07T09:49:08;10.85;;;9.70;;
80411;SDS011;69749;42.684;23.360;2024-01-07T09:51:35;14.07;;;10.82;;
80411;SDS011;69749;42.684;23.360;2024-01-07T09:54:02;12.63;;;9.00;;
80411;SDS011;69749;42.684;23.360;2024-01-07T09:56:42;11.80;;;9.73;;
80411;SDS011;69749;42.684;23.360;2024-01-07T09:59:11;13.30;;;10.52;;
80411;SDS011;69749;42.684;23.360;2024-01-07T10:01:39;11.35;;;9.15;;
80411;SDS011;69749;42.684;23.360;2024-01-07T10:04:05;12.40;;;7.53;;
80411;SDS011;69749;42.684;23.360;2024-01-07T10:06:31;9.27;;;6.70;;
80411;SDS011;69749;42.684;23.360;2024-01-07T10:09:00;8.20;;;6.47;;
80411;SDS011;69749;42.684;23.360;2024-01-07T10:11:25;9.15;;;7.22;;
80411;SDS011;69749;42.684;23.360;2024-01-07T10:13:51;8.15;;;5.40;;
80411;SDS011;69749;42.684;23.360;2024-01-07T10:16:17;8.65;;;5.32;;
80411;SDS011;69749;42.684;23.360;2024-01-07T10:18:42;6.53;;;5.93;;
80411;SDS011;69749;42.684;23.360;2024-01-07T10:21:08;9.82;;;6.18;;
80411;SDS011;69749;42.684;23.360;2024-01-07T10:23:33;8.23;;;5.97;;
80411;SDS011;69749;42.684;23.360;2024-01-07T10:25:59;7.57;;;5.78;;
80411;SDS011;69749;42.684;23.360;2024-01-07T10:28:27;8.90;;;6.25;;
80411;SDS011;69749;42.684;23.360;2024-01-07T10:30:52;8.02;;;5.10;;
80411;SDS011;69749;42.684;23.360;2024-01-07T10:33:18;10.82;;;7.60;;
80411;SDS011;69749;42.684;23.360;2024-01-07T10:35:49;15.82;;;11.88;;
80411;SDS011;69749;42.684;23.360;2024-01-07T10:38:18;13.18;;;7.70;;
80411;SDS011;69749;42.684;23.360;2024-01-07T10:40:44;8.77;;;6.38;;
80411;SDS011;69749;42.684;23.360;2024-01-07T10:43:13;9.52;;;6.55;;
80411;SDS011;69749;42.684;23.360;2024-01-07T10:45:42;9.55;;;6.95;;
80411;SDS011;69749;42.684;23.360;2024-01-07T10:48:09;11.45;;;7.05;;
80411;SDS011;69749;42.684;23.360;2024-01-07T10:50:37;8.48;;;6.05;;
80411;SDS011;69749;42.684;23.360;2024-01-07T10:53:03;8.25;;;5.50;;
80411;SDS011;69749;42.684;23.360;2024-01-07T10:55:33;7.13;;;5.55;;
80411;SDS011;69749;42.684;23.360;2024-01-07T10:58:01;10.25;;;6.22;;
80411;SDS011;69749;42.684;23.360;2024-01-07T11:00:28;78.90;;;27.90;;
80411;SDS011;69749;42.684;23.360;2024-01-07T11:05:36;8.75;;;7.07;;
80411;SDS011;69749;42.684;23.360;2024-01-07T11:08:06;10.23;;;6.50;;
80411;SDS011;69749;42.684;23.360;2024-01-07T11:10:43;11.30;;;7.05;;
80411;SDS011;69749;42.684;23.360;2024-01-07T11:15:59;10.32;;;8.15;;
80411;SDS011;69749;42.684;23.360;2024-01-07T11:18:28;7.88;;;6.32;;
80411;SDS011;69749;42.684;23.360;2024-01-07T11:21:01;11.35;;;7.05;;
80411;SDS011;69749;42.684;23.360;2024-01-07T11:23:34;12.60;;;7.75;;
80411;SDS011;69749;42.684;23.360;2024-01-07T11:26:05;10.52;;;6.90;;
80411;SDS011;69749;42.684;23.360;2024-01-07T11:31:09;9.18;;;5.78;;
80411;SDS011;69749;42.684;23.360;2024-01-07T11:33:36;8.50;;;4.60;;
80411;SDS011;69749;42.684;23.360;2024-01-07T11:36:02;7.40;;;4.60;;
80411;SDS011;69749;42.684;23.360;2024-01-07T11:38:30;6.63;;;4.95;;
80411;SDS011;69749;42.684;23.360;2024-01-07T11:40:56;7.45;;;4.88;;
80411;SDS011;69749;42.684;23.360;2024-01-07T11:43:22;7.55;;;4.30;;
80411;SDS011;69749;42.684;23.360;2024-01-07T11:45:51;4.72;;;3.50;;
80411;SDS011;69749;42.684;23.360;2024-01-07T11:48:18;7.63;;;3.10;;
80411;SDS011;69749;42.684;23.360;2024-01-07T11:50:44;5.43;;;3.55;;
80411;SDS011;69749;42.684;23.360;2024-01-07T11:53:12;6.00;;;4.40;;
80411;SDS011;69749;42.684;23.360;2024-01-07T11:55:38;5.80;;;4.03;;
80411;SDS011;69749;42.684;23.360;2024-01-07T11:58:03;9.52;;;6.07;;
80411;SDS011;69749;42.684;23.360;2024-01-07T12:00:33;11.90;;;5.18;;
80411;SDS011;69749;42.684;23.360;2024-01-07T12:03:02;4.13;;;3.40;;
80411;SDS011;69749;42.684;23.360;2024-01-07T12:05:28;3.22;;;2.40;;
80411;SDS011;69749;42.684;23.360;2024-01-07T12:07:54;5.28;;;3.10;;
80411;SDS011;69749;42.684;23.360;2024-01-07T12:10:20;4.43;;;2.92;;
80411;SDS011;69749;42.684;23.360;2024-01-07T12:12:46;5.10;;;3.40;;
80411;SDS011;69749;42.684;23.360;2024-01-07T12:15:12;5.60;;;3.03;;
80411;SDS011;69749;42.684;23.360;2024-01-07T12:17:39;5.03;;;3.45;;
80411;SDS011;69749;42.684;23.360;2024-01-07T12:20:05;4.80;;;3.42;;
80411;SDS011;69749;42.684;23.360;2024-01-07T12:25:01;4.57;;;2.97;;
80411;SDS011;69749;42.684;23.360;2024-01-07T12:27:33;5.63;;;3.35;;
80411;SDS011;69749;42.684;23.360;2024-01-07T12:30:00;4.65;;;3.53;;
80411;SDS011;69749;42.684;23.360;2024-01-07T12:32:27;21.38;;;10.88;;
80411;SDS011;69749;42.684;23.360;2024-01-07T12:34:53;16.55;;;8.73;;
80411;SDS011;69749;42.684;23.360;2024-01-07T12:37:18;9.18;;;4.45;;
80411;SDS011;69749;42.684;23.360;2024-01-07T12:39:44;8.07;;;3.83;;
80411;SDS011;69749;42.684;23.360;2024-01-07T12:42:10;6.15;;;3.92;;
80411;SDS011;69749;42.684;23.360;2024-01-07T12:44:38;8.23;;;4.25;;
80411;SDS011;69749;42.684;23.360;2024-01-07T12:47:04;6.47;;;4.35;;
80411;SDS011;69749;42.684;23.360;2024-01-07T12:49:30;8.38;;;5.63;;
80411;SDS011;69749;42.684;23.360;2024-01-07T12:51:56;3.97;;;3.53;;
80411;SDS011;69749;42.684;23.360;2024-01-07T12:54:21;4.60;;;3.63;;
80411;SDS011;69749;42.684;23.360;2024-01-07T12:56:48;4.90;;;3.42;;
80411;SDS011;69749;42.684;23.360;2024-01-07T12:59:14;7.93;;;3.78;;
80411;SDS011;69749;42.684;23.360;2024-01-07T13:01:39;6.55;;;3.97;;
80411;SDS011;69749;42.684;23.360;2024-01-07T13:04:05;5.13;;;3.78;;
80411;SDS011;69749;42.684;23.360;2024-01-07T13:06:31;7.90;;;3.67;;
80411;SDS011;69749;42.684;23.360;2024-01-07T13:08:56;7.47;;;4.43;;
80411;SDS011;69749;42.684;23.360;2024-01-07T13:11:22;6.43;;;3.28;;
80411;SDS011;69749;42.684;23.360;2024-01-07T13:13:47;8.70;;;4.57;;
80411;SDS011;69749;42.684;23.360;2024-01-07T13:16:13;6.40;;;3.92;;
80411;SDS011;69749;42.684;23.360;2024-01-07T13:18:38;5.30;;;3.40;;
80411;SDS011;69749;42.684;23.360;2024-01-07T13:21:04;5.00;;;3.70;;
80411;SDS011;69749;42.684;23.360;2024-01-07T13:23:31;7.30;;;4.20;;
80411;SDS011;69749;42.684;23.360;2024-01-07T13:25:58;6.78;;;3.78;;
80411;SDS011;69749;42.684;23.360;2024-01-07T13:28:23;7.38;;;4.50;;
80411;SDS011;69749;42.684;23.360;2024-01-07T13:30:49;8.77;;;4.43;;
80411;SDS011;69749;42.684;23.360;2024-01-07T13:33:14;7.60;;;4.05;;
80411;SDS011;69749;42.684;23.360;2024-01-07T13:35:42;9.20;;;4.80;;
80411;SDS011;69749;42.684;23.360;2024-01-07T13:38:08;9.18;;;5.00;;
80411;SDS011;69749;42.684;23.360;2024-01-07T13:40:34;9.88;;;4.50;;
80411;SDS011;69749;42.684;23.360;2024-01-07T13:43:00;7.75;;;4.70;;
80411;SDS011;69749;42.684;23.360;2024-01-07T13:45:25;4.45;;;3.97;;
80411;SDS011;69749;42.684;23.360;2024-01-07T13:47:51;6.72;;;4.82;;
80411;SDS011;69749;42.684;23.360;2024-01-07T13:50:16;7.22;;;4.80;;
80411;SDS011;69749;42.684;23.360;2024-01-07T13:52:43;9.98;;;5.05;;
80411;SDS011;69749;42.684;23.360;2024-01-07T13:55:08;8.38;;;4.40;;
80411;SDS011;69749;42.684;23.360;2024-01-07T13:57:38;12.18;;;5.13;;
80411;SDS011;69749;42.684;23.360;2024-01-07T14:00:08;12.68;;;6.43;;
80411;SDS011;69749;42.684;23.360;2024-01-07T14:02:37;9.93;;;5.70;;
80411;SDS011;69749;42.684;23.360;2024-01-07T14:05:04;10.82;;;5.30;;
80411;SDS011;69749;42.684;23.360;2024-01-07T14:07:34;7.78;;;4.90;;
80411;SDS011;69749;42.684;23.360;2024-01-07T14:09:59;7.22;;;4.90;;
80411;SDS011;69749;42.684;23.360;2024-01-07T14:12:28;7.88;;;4.63;;
80411;SDS011;69749;42.684;23.360;2024-01-07T14:14:53;7.50;;;5.15;;
80411;SDS011;69749;42.684;23.360;2024-01-07T14:17:19;8.88;;;5.07;;
80411;SDS011;69749;42.684;23.360;2024-01-07T14:19:47;9.30;;;5.15;;
80411;SDS011;69749;42.684;23.360;2024-01-07T14:22:13;7.05;;;4.55;;
80411;SDS011;69749;42.684;23.360;2024-01-07T14:24:39;10.15;;;5.22;;